Time;durP1;ratioP1;P1;durP2;ratioP2;P2;SDS_P1;SDS_P2;PMS_P1;PMS_P2;Temp;Humidity;BMP_temperature;BMP_pressure;BME280_temperature;BME280_humidity;BME280_pressure;Samples;Min_cycle;Max_cycle;Signal;HPM_P1;HPM_P2
2022/10/18 00:03:07;;;;;;;46.05;36.90;;;23.00;58.60;;;;;;4807818;54;21364;-34
2022/10/18 00:08:08;;;;;;;44.13;35.63;;;23.00;58.60;;;;;;4800050;54;21075;-35
2022/10/18 00:13:09;;;;;;;42.38;34.60;;;23.00;58.60;;;;;;4817254;54;21028;-35
2022/10/18 00:18:12;;;;;;;40.45;33.42;;;23.00;58.60;;;;;;4831992;54;20992;-28
2022/10/18 00:23:13;;;;;;;42.35;34.33;;;23.00;58.60;;;;;;4814813;54;21591;-33
2022/10/18 00:28:15;;;;;;;42.58;34.70;;;23.00;58.60;;;;;;4806139;54;21046;-33
2022/10/18 00:33:16;;;;;;;41.08;34.67;;;23.00;58.40;;;;;;4819652;54;21115;-35
2022/10/18 00:38:16;;;;;;;42.05;33.60;;;23.00;58.40;;;;;;4809643;54;21091;-33
2022/10/18 00:43:17;;;;;;;40.83;31.45;;;23.20;58.50;;;;;;4813862;54;21103;-33
2022/10/18 00:48:19;;;;;;;39.90;32.10;;;23.00;58.40;;;;;;4805213;54;21083;-29
2022/10/18 00:53:22;;;;;;;41.22;33.80;;;23.00;58.30;;;;;;4795387;58;21135;-31
2022/10/18 00:58:23;;;;;;;40.12;32.42;;;23.00;58.30;;;;;;4808001;54;21003;-26
2022/10/18 01:03:24;;;;;;;37.60;31.50;;;23.00;58.30;;;;;;4806168;54;21023;-30
2022/10/18 01:13:58;;;;;;;39.50;32.17;;;23.00;58.30;;;;;;4807306;54;20984;-32
2022/10/18 01:22:04;;;;;;;37.00;29.77;;;23.00;58.20;;;;;;4820466;54;21019;-31
2022/10/18 01:27:24;;;;;;;;;;;22.90;58.00;;;;;;4818962;54;21052;-28
2022/10/18 01:32:36;;;;;;;35.63;29.92;;;22.90;57.90;;;;;;4794727;54;20138;-31
2022/10/18 01:37:38;;;;;;;36.53;30.23;;;23.00;58.10;;;;;;4796115;56;21572;-27
2022/10/18 01:42:41;;;;;;;36.65;29.90;;;22.90;58.10;;;;;;4872149;54;21469;-31
2022/10/18 01:47:48;;;;;;;34.53;29.17;;;22.90;58.00;;;;;;4815777;54;20988;-31
2022/10/18 01:52:50;;;;;;;36.17;28.85;;;22.90;58.00;;;;;;4881627;54;21541;-29
2022/10/18 01:58:14;;;;;;;35.45;28.35;;;22.90;57.90;;;;;;4803901;54;21011;-36
2022/10/18 02:03:26;;;;;;;33.95;28.25;;;22.90;57.90;;;;;;4810560;54;21206;-33
2022/10/18 02:08:53;;;;;;;32.28;26.95;;;22.90;58.00;;;;;;4832368;54;21060;-28
2022/10/18 02:14:04;;;;;;;33.85;28.17;;;22.90;57.80;;;;;;4795584;58;21091;-32
2022/10/18 02:19:20;;;;;;;34.95;28.00;;;22.90;57.60;;;;;;4813887;54;20996;-27
2022/10/18 02:24:25;;;;;;;29.43;25.83;;;22.90;57.60;;;;;;4795610;55;20988;-29
2022/10/18 02:29:26;;;;;;;32.15;26.20;;;22.90;57.70;;;;;;4815297;54;21036;-34
2022/10/18 02:34:37;;;;;;;31.52;26.83;;;22.90;57.70;;;;;;4838064;54;21493;-33
2022/10/18 02:39:45;;;;;;;30.58;26.08;;;23.00;57.90;;;;;;4825191;54;21024;-33
2022/10/18 02:44:46;;;;;;;29.20;24.92;;;22.90;57.70;;;;;;4800123;54;20996;-34
2022/10/18 02:49:46;;;;;;;31.70;24.85;;;22.90;57.60;;;;;;4804658;54;21055;-29
2022/10/18 02:54:47;;;;;;;28.52;24.52;;;22.90;57.60;;;;;;4794952;58;21123;-28
2022/10/18 02:59:48;;;;;;;29.98;23.98;;;22.90;57.90;;;;;;4794841;58;21000;-35
2022/10/18 03:04:49;;;;;;;28.23;23.95;;;22.90;57.60;;;;;;4808092;54;21007;-33
2022/10/18 03:09:50;;;;;;;28.20;23.77;;;22.90;57.60;;;;;;4796291;54;21031;-29
2022/10/18 03:14:51;;;;;;;27.87;23.75;;;22.90;57.60;;;;;;4794854;58;21063;-34
2022/10/18 03:19:51;;;;;;;30.40;23.92;;;22.90;57.60;;;;;;4824908;54;21003;-31
2022/10/18 03:24:52;;;;;;;27.80;23.58;;;22.90;57.60;;;;;;4818447;54;21067;-27
2022/10/18 03:29:53;;;;;;;27.37;23.17;;;22.90;57.60;;;;;;4794801;58;21639;-27
2022/10/18 03:34:54;;;;;;;28.67;23.27;;;22.90;57.60;;;;;;4804401;54;21163;-26
2022/10/18 03:39:56;;;;;;;25.17;21.77;;;22.80;57.50;;;;;;4799587;54;21004;-29
2022/10/18 03:44:57;;;;;;;26.90;22.65;;;22.80;57.30;;;;;;4818107;54;21039;-26
2022/10/18 03:49:58;;;;;;;25.58;21.92;;;22.80;57.30;;;;;;4808003;54;21008;-30
2022/10/18 03:54:58;;;;;;;27.17;22.62;;;22.80;57.30;;;;;;4795002;58;21047;-28
2022/10/18 04:00:00;;;;;;;26.15;21.70;;;22.80;57.20;;;;;;4816337;54;21509;-30
2022/10/18 04:05:01;;;;;;;26.70;22.02;;;22.80;57.20;;;;;;4798021;54;21565;-28
2022/10/18 04:10:02;;;;;;;25.90;21.27;;;22.80;57.10;;;;;;4818284;54;21052;-26
2022/10/18 04:15:04;;;;;;;27.98;20.85;;;22.80;57.00;;;;;;4800232;54;21067;-26
2022/10/18 04:20:06;;;;;;;27.08;21.15;;;22.80;57.10;;;;;;4816270;54;21014;-30
2022/10/18 04:25:07;;;;;;;27.30;21.67;;;22.80;57.10;;;;;;4817469;54;20992;-32
2022/10/18 04:30:09;;;;;;;25.60;20.58;;;22.80;57.20;;;;;;4839696;54;21011;-33
2022/10/18 04:35:10;;;;;;;26.90;19.92;;;22.80;56.90;;;;;;4827570;54;21020;-32
2022/10/18 04:40:11;;;;;;;24.45;20.90;;;22.80;57.20;;;;;;4815944;54;21595;-31
2022/10/18 04:45:15;;;;;;;24.27;19.75;;;22.80;57.20;;;;;;4804313;54;20988;-30
2022/10/18 04:50:16;;;;;;;23.65;19.52;;;22.70;57.00;;;;;;4856102;54;21612;-29
2022/10/18 04:55:16;;;;;;;23.17;19.02;;;22.70;57.10;;;;;;4804035;54;21075;-26
2022/10/18 05:00:17;;;;;;;23.48;19.55;;;22.80;57.20;;;;;;4834003;54;21075;-33
2022/10/18 05:05:18;;;;;;;22.98;19.48;;;22.70;56.90;;;;;;4798531;54;21862;-31
2022/10/18 05:10:19;;;;;;;23.00;18.42;;;22.80;56.90;;;;;;4821404;54;21095;-33
2022/10/18 05:15:20;;;;;;;24.40;19.77;;;22.70;56.80;;;;;;4809757;54;21094;-31
2022/10/18 05:20:20;;;;;;;22.98;19.58;;;22.70;56.80;;;;;;4800348;54;21008;-29
2022/10/18 05:25:21;;;;;;;21.52;18.70;;;22.70;56.80;;;;;;4818914;54;21003;-33
2022/10/18 05:30:22;;;;;;;23.85;19.35;;;22.70;56.70;;;;;;4814404;54;21012;-35
2022/10/18 05:35:23;;;;;;;23.35;19.48;;;22.70;56.60;;;;;;4853391;54;21486;-31
2022/10/18 05:40:24;;;;;;;23.05;19.20;;;22.70;56.70;;;;;;4806194;54;21591;-31
2022/10/18 05:45:24;;;;;;;24.00;19.50;;;22.70;56.80;;;;;;4812072;54;21011;-27
2022/10/18 05:50:25;;;;;;;20.40;17.85;;;22.70;56.50;;;;;;4809970;54;21000;-34
2022/10/18 05:55:26;;;;;;;22.30;18.15;;;22.70;56.60;;;;;;4798925;54;21316;-31
2022/10/18 06:00:27;;;;;;;21.23;18.70;;;22.70;56.50;;;;;;4813291;54;21137;-29
2022/10/18 06:05:28;;;;;;;22.50;18.95;;;22.70;56.50;;;;;;4799774;54;21004;-27
2022/10/18 06:10:29;;;;;;;21.85;18.50;;;22.70;56.40;;;;;;4820768;54;20992;-27
2022/10/18 06:15:31;;;;;;;22.50;18.58;;;22.70;56.40;;;;;;4795026;55;21525;-27
2022/10/18 06:20:32;;;;;;;24.10;19.65;;;22.70;56.40;;;;;;4802968;54;20988;-30
2022/10/18 06:25:33;;;;;;;25.65;20.02;;;22.70;56.40;;;;;;4795413;55;21055;-29
2022/10/18 06:30:34;;;;;;;24.80;20.42;;;22.70;56.20;;;;;;4794630;58;21032;-26
2022/10/18 06:35:34;;;;;;;23.98;19.87;;;22.70;56.30;;;;;;4809595;54;21031;-30
2022/10/18 06:40:36;;;;;;;25.70;21.30;;;22.70;56.30;;;;;;4812848;54;20996;-26
2022/10/18 06:45:38;;;;;;;23.23;19.42;;;22.70;56.20;;;;;;4807794;54;21461;-30
2022/10/18 06:50:41;;;;;;;27.37;21.10;;;22.70;56.10;;;;;;4817200;54;21114;-30
2022/10/18 06:55:42;;;;;;;28.62;21.73;;;22.70;56.20;;;;;;4808611;54;21111;-33
2022/10/18 07:00:44;;;;;;;30.12;24.73;;;22.70;56.00;;;;;;4805649;54;22298;-34
2022/10/18 07:05:45;;;;;;;32.10;25.40;;;22.80;55.80;;;;;;4823533;54;22333;-31
2022/10/18 07:10:52;;;;;;;34.13;27.55;;;22.80;55.60;;;;;;4807865;54;21028;-32
2022/10/18 07:16:08;;;;;;;37.65;28.38;;;22.80;55.30;;;;;;4822333;54;21055;-31
2022/10/18 07:21:12;;;;;;;38.60;28.52;;;22.90;54.90;;;;;;4804056;54;21529;-33
2022/10/18 07:26:26;;;;;;;40.92;30.23;;;22.90;54.70;;;;;;4827153;54;21040;-30
2022/10/18 07:31:28;;;;;;;42.42;29.80;;;22.90;54.80;;;;;;4804424;54;21548;-34
2022/10/18 07:36:29;;;;;;;44.67;31.62;;;23.00;54.80;;;;;;4830410;54;21008;-35
2022/10/18 07:41:32;;;;;;;45.25;31.92;;;23.00;54.60;;;;;;4795787;54;21031;-31
2022/10/18 07:46:33;;;;;;;45.45;32.35;;;23.10;54.70;;;;;;4817633;54;21549;-36
2022/10/18 07:51:34;;;;;;;47.15;33.05;;;23.10;54.10;;;;;;4799638;54;21012;-32
2022/10/18 07:56:35;;;;;;;47.25;33.47;;;23.10;54.50;;;;;;4795588;55;21554;-30
2022/10/18 08:01:36;;;;;;;44.35;32.78;;;23.20;54.50;;;;;;4797074;54;21039;-33
2022/10/18 08:06:37;;;;;;;42.95;32.45;;;23.30;54.40;;;;;;4801926;54;21055;-36
2022/10/18 08:11:38;;;;;;;42.75;33.03;;;23.20;54.40;;;;;;4853102;54;20996;-33
2022/10/18 08:16:38;;;;;;;45.20;33.88;;;23.20;54.40;;;;;;4828358;54;21012;-33
2022/10/18 08:21:39;;;;;;;44.72;32.72;;;23.30;54.40;;;;;;4794919;58;21162;-37
2022/10/18 08:26:40;;;;;;;48.15;32.70;;;23.30;54.40;;;;;;4794797;58;21004;-33
2022/10/18 08:31:41;;;;;;;47.65;33.92;;;23.30;54.60;;;;;;4794729;58;21856;-31
2022/10/18 08:36:42;;;;;;;46.63;33.92;;;23.30;54.50;;;;;;4797676;54;21051;-30
2022/10/18 08:42:06;;;;;;;44.83;33.70;;;23.30;54.60;;;;;;4794645;58;21485;-36
2022/10/18 08:47:30;;;;;;;46.40;35.00;;;23.40;54.50;;;;;;4812386;54;21132;-29
2022/10/18 08:57:36;;;;;;;51.10;36.53;;;23.40;54.70;;;;;;4808889;54;21103;-34
2022/10/18 09:06:08;;;;;;;54.55;37.75;;;23.30;54.70;;;;;;4804972;54;21047;-29
2022/10/18 09:11:23;;;;;;;53.83;39.28;;;23.30;54.60;;;;;;4810495;54;21083;-36
2022/10/18 09:17:04;;;;;;;55.05;40.22;;;23.30;54.50;;;;;;4796913;54;21059;-36
2022/10/18 09:22:19;;;;;;;57.70;41.47;;;23.30;54.40;;;;;;4795273;55;21119;-35
2022/10/18 09:27:28;;;;;;;56.15;41.55;;;23.30;54.80;;;;;;4836600;54;21390;-36
2022/10/18 09:34:26;;;;;;;60.50;40.45;;;23.40;55.00;;;;;;4795026;58;21115;-32
2022/10/18 09:39:35;;;;;;;58.50;42.62;;;23.50;55.30;;;;;;4801184;54;20992;-31
2022/10/18 09:44:44;;;;;;;52.83;41.83;;;23.40;55.50;;;;;;4800520;54;21055;-29
2022/10/18 09:49:49;;;;;;;57.62;42.88;;;23.40;55.60;;;;;;4812984;54;21529;-35
2022/10/18 09:54:57;;;;;;;56.97;42.70;;;23.40;55.60;;;;;;4793738;54;21016;-32
2022/10/18 10:00:00;;;;;;;56.78;43.55;;;23.40;55.70;;;;;;4808457;54;21004;-32
2022/10/18 10:05:01;;;;;;;82.68;59.47;;;23.40;55.80;;;;;;4814941;54;21080;-32
2022/10/18 10:10:17;;;;;;;76.35;56.95;;;23.20;54.40;;;;;;4795246;55;21012;-29
2022/10/18 10:15:24;;;;;;;82.55;57.97;;;23.30;54.80;;;;;;4797058;54;21040;-36
2022/10/18 10:20:40;;;;;;;;;;;23.40;55.00;;;;;;4799550;58;21134;-35
2022/10/18 10:25:42;;;;;;;75.07;54.42;;;23.40;55.10;;;;;;4842270;54;20170;-34
2022/10/18 10:30:43;;;;;;;77.40;56.15;;;23.40;55.50;;;;;;4813447;54;21020;-37
2022/10/18 10:35:44;;;;;;;75.07;55.20;;;23.40;55.60;;;;;;4874579;54;21008;-36
2022/10/18 10:40:49;;;;;;;74.57;54.20;;;23.40;56.40;;;;;;4800612;54;21067;-32
2022/10/18 10:49:46;;;;;;;70.97;53.92;;;23.30;55.90;;;;;;4795272;55;21011;-32
2022/10/18 10:54:47;;;;;;;72.07;51.33;;;23.40;56.20;;;;;;4803266;54;21052;-33
2022/10/18 10:59:54;;;;;;;73.10;51.88;;;23.40;56.40;;;;;;4828542;54;21585;-31
2022/10/18 11:04:56;;;;;;;66.32;51.20;;;23.40;56.50;;;;;;4828130;54;21047;-33
2022/10/18 11:11:57;;;;;;;69.75;50.63;;;23.40;56.70;;;;;;4838017;54;21059;-31
2022/10/18 11:17:19;;;;;;;69.65;50.47;;;23.50;56.90;;;;;;4823776;54;20980;-35
2022/10/18 11:22:22;;;;;;;69.55;51.28;;;23.50;56.90;;;;;;4804534;54;22312;-33
2022/10/18 11:27:39;;;;;;;69.80;51.37;;;23.30;57.00;;;;;;4818665;54;20991;-30
2022/10/18 11:32:57;;;;;;;68.85;52.67;;;23.40;57.00;;;;;;4794793;58;21104;-33
2022/10/18 11:38:48;;;;;;;70.95;54.00;;;23.40;56.90;;;;;;4807549;54;21083;-31
2022/10/18 11:44:01;;;;;;;69.60;52.92;;;23.40;57.00;;;;;;4814196;54;21047;-31
2022/10/18 11:49:21;;;;;;;69.37;54.08;;;23.40;57.20;;;;;;4802466;54;20996;-27
2022/10/18 11:59:46;;;;;;;68.60;53.53;;;23.40;57.00;;;;;;4814302;54;20983;-31
2022/10/18 12:04:57;;;;;;;71.62;55.33;;;23.40;57.10;;;;;;4802705;54;21016;-37
2022/10/18 12:10:00;;;;;;;77.57;55.90;;;23.40;57.30;;;;;;4807263;54;21111;-35
2022/10/18 12:15:12;;;;;;;74.87;57.45;;;23.40;58.50;;;;;;4817476;54;21024;-29
2022/10/18 12:20:36;;;;;;;86.12;62.72;;;23.50;58.20;;;;;;4798407;54;21015;-34
2022/10/18 12:25:40;;;;;;;89.75;66.00;;;23.60;58.60;;;;;;4806642;54;21197;-34
2022/10/18 12:32:24;;;;;;;90.18;66.85;;;23.60;58.70;;;;;;4814493;54;21023;-33
2022/10/18 12:38:01;;;;;;;93.28;69.28;;;23.60;58.90;;;;;;4814532;54;21011;-32
2022/10/18 12:43:17;;;;;;;91.65;68.85;;;23.60;59.30;;;;;;4802510;54;21049;-29
2022/10/18 12:48:34;;;;;;;92.43;68.62;;;23.70;59.40;;;;;;4803702;54;21011;-37
2022/10/18 12:53:35;;;;;;;86.37;67.03;;;23.70;59.50;;;;;;4812058;54;21447;-34
2022/10/18 12:58:36;;;;;;;85.68;64.18;;;23.60;59.30;;;;;;4828476;54;21047;-30
2022/10/18 13:03:50;;;;;;;90.78;68.12;;;23.70;60.20;;;;;;4836312;54;21020;-30
2022/10/18 13:09:18;;;;;;;81.45;61.75;;;23.80;59.50;;;;;;4815358;54;21498;-32
2022/10/18 13:16:02;;;;;;;90.00;64.75;;;23.80;59.40;;;;;;4796438;54;21007;-27
2022/10/18 13:21:25;;;;;;;97.90;68.68;;;23.70;58.40;;;;;;4811215;54;21032;-37
2022/10/18 13:27:14;;;;;;;94.07;65.47;;;23.70;56.60;;;;;;4795726;55;21108;-30
2022/10/18 13:35:54;;;;;;;94.30;65.82;;;23.70;56.50;;;;;;4986768;54;21723;-27
2022/10/18 13:41:38;;;;;;;89.03;63.55;;;23.70;56.90;;;;;;4839715;54;21490;-31
2022/10/18 13:47:34;;;;;;;87.57;63.47;;;23.70;57.20;;;;;;4798348;54;20996;-27
2022/10/18 13:53:12;;;;;;;85.50;63.15;;;23.60;56.90;;;;;;4851986;54;21096;-27
2022/10/18 13:58:49;;;;;;;83.87;62.05;;;23.70;57.10;;;;;;4792886;55;21072;-25
2022/10/18 14:05:50;;;;;;;85.50;61.00;;;23.60;57.30;;;;;;4811588;54;21000;-31
2022/10/18 14:11:01;;;;;;;82.05;60.80;;;23.50;57.40;;;;;;4796060;58;20988;-29
2022/10/18 14:16:16;;;;;;;78.07;58.40;;;23.50;57.80;;;;;;4806832;54;21051;-29
2022/10/18 14:21:23;;;;;;;79.03;58.40;;;23.40;57.90;;;;;;4810080;54;21113;-32
2022/10/18 14:26:27;;;;;;;71.18;55.95;;;23.40;58.00;;;;;;4812396;54;21171;-34
2022/10/18 14:31:29;;;;;;;78.18;58.35;;;23.40;58.10;;;;;;4820877;54;21107;-30
2022/10/18 14:36:38;;;;;;;74.25;56.70;;;23.40;58.20;;;;;;4873255;54;21012;-36
2022/10/18 14:41:56;;;;;;;73.10;56.85;;;23.30;58.20;;;;;;4794669;58;21024;-26
2022/10/18 14:47:00;;;;;;;71.97;54.70;;;23.30;58.30;;;;;;4803787;54;21063;-32
2022/10/18 14:52:01;;;;;;;69.20;55.67;;;23.30;58.40;;;;;;4820993;54;21007;-27
2022/10/18 14:57:04;;;;;;;69.85;54.10;;;23.30;58.50;;;;;;4813107;54;21004;-31
2022/10/18 15:02:16;;;;;;;69.53;55.28;;;23.30;58.50;;;;;;4831909;54;21075;-29
2022/10/18 15:07:18;;;;;;;67.25;52.65;;;23.30;58.60;;;;;;4805093;54;21031;-30
2022/10/18 15:12:19;;;;;;;70.22;52.30;;;23.30;58.60;;;;;;4795428;58;21091;-33
2022/10/18 15:17:27;;;;;;;65.85;52.08;;;23.30;58.70;;;;;;4845201;54;22604;-28
2022/10/18 15:22:30;;;;;;;70.43;53.05;;;23.20;58.80;;;;;;4813004;54;21095;-25
2022/10/18 15:27:34;;;;;;;67.30;53.00;;;23.30;58.80;;;;;;4795072;58;21060;-34
2022/10/18 15:32:36;;;;;;;69.90;52.65;;;23.20;58.90;;;;;;4809968;54;21142;-29
2022/10/18 15:37:44;;;;;;;69.65;51.42;;;23.30;58.80;;;;;;4874200;54;21605;-29
2022/10/18 15:42:45;;;;;;;63.28;52.33;;;23.20;58.70;;;;;;4837021;54;21077;-36
2022/10/18 15:47:58;;;;;;;67.85;52.13;;;23.20;58.90;;;;;;4807427;54;21004;-29
2022/10/18 15:53:44;;;;;;;64.72;51.60;;;23.20;59.00;;;;;;4795693;54;21033;-29
2022/10/18 15:58:46;;;;;;;66.25;51.40;;;23.20;59.70;;;;;;4824482;54;21071;-31
2022/10/18 16:03:48;;;;;;;61.83;51.30;;;23.20;59.10;;;;;;4808160;54;21059;-28
2022/10/18 16:08:51;;;;;;;64.82;50.83;;;23.20;59.10;;;;;;4795228;58;21044;-30
2022/10/18 16:13:52;;;;;;;65.50;49.83;;;23.20;59.10;;;;;;4804351;54;21079;-32
2022/10/18 16:18:54;;;;;;;62.25;49.70;;;23.20;59.10;;;;;;4794973;58;21502;-29
2022/10/18 16:23:56;;;;;;;63.15;50.88;;;23.20;59.20;;;;;;4795471;58;21482;-33
2022/10/18 16:28:58;;;;;;;61.92;47.80;;;23.20;59.30;;;;;;4801857;54;21064;-35
2022/10/18 16:33:59;;;;;;;61.00;50.10;;;23.20;59.30;;;;;;4841047;54;21024;-28
2022/10/18 16:39:06;;;;;;;60.80;48.90;;;23.20;59.30;;;;;;4837770;54;21059;-29
2022/10/18 16:44:10;;;;;;;61.13;49.80;;;23.20;59.40;;;;;;4828747;54;21079;-29
2022/10/18 16:49:25;;;;;;;57.50;46.90;;;23.20;59.40;;;;;;4811448;54;21039;-27
2022/10/18 16:54:26;;;;;;;59.55;48.05;;;23.20;59.50;;;;;;4795551;58;21461;-27
2022/10/18 16:59:30;;;;;;;57.53;48.35;;;23.20;59.50;;;;;;4814700;54;21602;-25
2022/10/18 17:04:31;;;;;;;60.78;49.40;;;23.10;59.50;;;;;;4810330;54;21556;-32
2022/10/18 17:09:34;;;;;;;58.95;48.28;;;23.20;59.50;;;;;;4809886;54;21004;-28
2022/10/18 17:14:35;;;;;;;61.50;49.58;;;23.20;59.60;;;;;;4795351;58;21532;-32
2022/10/18 17:19:36;;;;;;;60.80;48.90;;;23.20;59.70;;;;;;4804553;54;21577;-31
2022/10/18 17:24:37;;;;;;;59.72;49.58;;;23.20;59.70;;;;;;4795485;58;21059;-27
2022/10/18 17:29:39;;;;;;;63.60;51.42;;;23.20;59.70;;;;;;4819013;54;21173;-31
2022/10/18 17:34:40;;;;;;;61.28;49.70;;;23.20;59.80;;;;;;4796011;58;21494;-30
2022/10/18 17:39:41;;;;;;;60.70;50.17;;;23.20;59.80;;;;;;4799722;54;21067;-30
2022/10/18 17:44:43;;;;;;;65.87;52.25;;;23.20;59.90;;;;;;4796005;55;20999;-28
2022/10/18 17:49:44;;;;;;;64.12;51.42;;;23.20;60.00;;;;;;4833488;54;21170;-30
2022/10/18 17:54:45;;;;;;;62.67;50.72;;;23.20;60.00;;;;;;4798990;54;21863;-32
2022/10/18 17:59:47;;;;;;;61.25;50.55;;;23.20;60.10;;;;;;4809742;54;21027;-35
2022/10/18 18:04:49;;;;;;;64.95;50.53;;;23.20;60.10;;;;;;4806175;54;22297;-36
2022/10/18 18:09:50;;;;;;;62.83;52.47;;;23.20;60.00;;;;;;4822680;54;21569;-31
2022/10/18 18:14:51;;;;;;;67.95;53.35;;;23.20;60.20;;;;;;4802380;54;21474;-32
2022/10/18 18:19:52;;;;;;;64.97;53.63;;;23.20;60.20;;;;;;4803868;54;21008;-35
2022/10/18 18:24:52;;;;;;;67.05;53.08;;;23.20;60.30;;;;;;4835798;54;20980;-31
2022/10/18 18:29:53;;;;;;;67.72;54.50;;;23.20;60.40;;;;;;4804521;54;21004;-35
2022/10/18 18:34:54;;;;;;;67.22;52.08;;;23.20;60.30;;;;;;4807069;54;21039;-33
2022/10/18 18:39:55;;;;;;;70.82;54.13;;;23.10;60.40;;;;;;4795112;58;21004;-30
2022/10/18 18:44:56;;;;;;;69.30;54.55;;;23.20;60.50;;;;;;4806809;54;20992;-31
2022/10/18 18:49:57;;;;;;;68.53;54.40;;;23.20;60.40;;;;;;4798627;54;21099;-32
2022/10/18 18:54:57;;;;;;;66.10;54.20;;;23.20;60.40;;;;;;4794855;58;21545;-28
2022/10/18 18:59:58;;;;;;;70.30;56.63;;;23.10;60.40;;;;;;4827330;54;20976;-29
2022/10/18 19:04:59;;;;;;;72.12;57.03;;;23.10;60.50;;;;;;4808135;54;21008;-29
2022/10/18 19:10:00;;;;;;;73.78;57.80;;;23.20;60.60;;;;;;4800848;54;20984;-30
2022/10/18 19:15:00;;;;;;;72.97;57.80;;;23.20;60.50;;;;;;4819880;54;21012;-29
2022/10/18 19:20:03;;;;;;;75.20;59.97;;;23.20;60.50;;;;;;4795460;55;21077;-32
2022/10/18 19:25:05;;;;;;;74.87;59.47;;;23.10;60.60;;;;;;4799333;54;21545;-34
2022/10/18 19:30:10;;;;;;;74.62;59.75;;;23.10;60.50;;;;;;4832041;54;21079;-34
2022/10/18 19:35:11;;;;;;;76.50;59.53;;;23.10;60.60;;;;;;4831511;54;21029;-31
2022/10/18 19:40:12;;;;;;;71.93;58.72;;;23.10;60.60;;;;;;4798844;54;21025;-26
2022/10/18 19:45:13;;;;;;;76.22;59.55;;;23.10;60.60;;;;;;4809671;54;21528;-31
2022/10/18 19:50:14;;;;;;;72.68;59.67;;;23.10;60.60;;;;;;4858961;54;21525;-28
2022/10/18 19:55:14;;;;;;;77.05;59.97;;;23.10;60.70;;;;;;4796380;54;21076;-27
2022/10/18 20:00:15;;;;;;;76.80;59.65;;;23.10;60.60;;;;;;4801783;54;21011;-28
2022/10/18 20:05:16;;;;;;;74.05;58.25;;;23.10;60.60;;;;;;4829347;54;21080;-28
2022/10/18 20:10:17;;;;;;;74.87;59.97;;;23.10;60.70;;;;;;4814418;54;21027;-29
2022/10/18 20:15:18;;;;;;;77.80;58.53;;;23.10;60.70;;;;;;4795035;58;20996;-27
2022/10/18 20:20:18;;;;;;;75.05;59.97;;;23.10;60.70;;;;;;4829113;54;21020;-29
2022/10/18 20:25:19;;;;;;;75.53;58.47;;;23.10;60.70;;;;;;4795217;58;22379;-31
2022/10/18 20:30:20;;;;;;;79.30;60.47;;;23.10;60.70;;;;;;4804483;54;21111;-28
2022/10/18 20:35:21;;;;;;;80.50;60.85;;;23.10;60.70;;;;;;4805275;54;21458;-31
2022/10/18 20:40:22;;;;;;;76.82;59.10;;;23.10;60.80;;;;;;4805060;54;21023;-27
2022/10/18 20:45:23;;;;;;;82.07;61.53;;;23.10;60.70;;;;;;4822265;54;21043;-35
2022/10/18 20:50:23;;;;;;;74.10;58.65;;;23.10;60.80;;;;;;4831376;54;21075;-29
2022/10/18 20:55:24;;;;;;;76.50;59.83;;;23.10;60.80;;;;;;4810568;54;21514;-32
2022/10/18 21:00:26;;;;;;;76.32;60.78;;;23.10;60.80;;;;;;4805998;54;21054;-31
2022/10/18 21:05:29;;;;;;;78.28;60.67;;;23.00;60.80;;;;;;4795035;58;21088;-33
2022/10/18 21:10:30;;;;;;;73.40;59.15;;;23.10;61.00;;;;;;4846259;54;21059;-27
2022/10/18 21:15:31;;;;;;;72.43;57.70;;;23.10;61.00;;;;;;4819731;54;20984;-31
2022/10/18 21:20:32;;;;;;;78.00;60.05;;;23.00;61.00;;;;;;4807293;54;21490;-27
2022/10/18 21:25:33;;;;;;;76.75;59.50;;;23.10;61.10;;;;;;4796091;58;21028;-28
2022/10/18 21:30:33;;;;;;;76.72;59.20;;;23.00;61.00;;;;;;4810348;54;21020;-36
2022/10/18 21:35:36;;;;;;;78.00;61.63;;;23.10;61.10;;;;;;4798844;54;21056;-29
2022/10/18 21:40:43;;;;;;;74.47;58.08;;;23.00;61.10;;;;;;4803029;54;20991;-31
2022/10/18 21:45:44;;;;;;;77.03;59.30;;;23.00;61.20;;;;;;4800865;54;21565;-25
2022/10/18 21:50:44;;;;;;;72.05;57.70;;;23.10;61.30;;;;;;4821940;54;21047;-27
2022/10/18 21:55:48;;;;;;;68.30;56.28;;;23.00;61.40;;;;;;4810145;54;20996;-30
2022/10/18 22:00:49;;;;;;;72.80;57.33;;;23.10;61.50;;;;;;4819721;54;21071;-26
2022/10/18 22:06:00;;;;;;;76.47;59.60;;;23.00;61.50;;;;;;4841558;54;20996;-26
2022/10/18 22:11:02;;;;;;;69.53;55.70;;;23.00;61.40;;;;;;4802639;54;21649;-34
2022/10/18 22:16:04;;;;;;;70.10;55.92;;;23.00;62.30;;;;;;4831858;54;21000;-30
2022/10/18 22:21:08;;;;;;;70.93;55.72;;;23.00;61.60;;;;;;4829321;54;21083;-31
2022/10/18 22:26:15;;;;;;;70.25;55.75;;;23.00;61.70;;;;;;4795579;58;21043;-27
2022/10/18 22:31:18;;;;;;;73.32;56.60;;;23.00;61.80;;;;;;4815081;54;21047;-31
2022/10/18 22:36:19;;;;;;;69.40;55.78;;;23.00;61.80;;;;;;4811940;54;21004;-34
2022/10/18 22:41:20;;;;;;;72.32;55.55;;;23.00;61.90;;;;;;4810600;54;21063;-31
2022/10/18 22:46:21;;;;;;;70.97;56.40;;;23.00;62.00;;;;;;4813553;54;21035;-35
2022/10/18 22:51:22;;;;;;;69.97;55.00;;;23.00;62.10;;;;;;4795911;55;21993;-33
2022/10/18 22:56:23;;;;;;;66.07;52.55;;;23.00;62.20;;;;;;4814353;54;21016;-30
2022/10/18 23:01:23;;;;;;;69.40;54.85;;;23.00;62.20;;;;;;4839359;54;21043;-27
2022/10/18 23:06:32;;;;;;;69.55;54.35;;;23.00;62.20;;;;;;4814178;54;21481;-28
2022/10/18 23:11:34;;;;;;;69.12;54.67;;;23.00;62.00;;;;;;4795483;58;21094;-29
2022/10/18 23:16:35;;;;;;;69.90;54.28;;;23.00;62.30;;;;;;4795309;58;21016;-33
2022/10/18 23:21:36;;;;;;;70.20;53.15;;;23.00;62.30;;;;;;4834589;54;21012;-28
2022/10/18 23:26:37;;;;;;;67.45;52.38;;;23.00;62.30;;;;;;4826573;54;21083;-36
2022/10/18 23:31:37;;;;;;;65.72;53.35;;;23.00;62.40;;;;;;4811449;54;21023;-27
2022/10/18 23:36:38;;;;;;;65.57;53.35;;;23.00;62.50;;;;;;4801961;54;20992;-30
2022/10/18 23:41:39;;;;;;;66.15;53.05;;;23.00;62.60;;;;;;4801887;54;21035;-33
2022/10/18 23:46:40;;;;;;;64.35;51.65;;;23.00;63.10;;;;;;4804400;54;20996;-27
2022/10/18 23:51:41;;;;;;;66.10;51.28;;;23.00;62.60;;;;;;4829981;54;21019;-30
2022/10/18 23:56:41;;;;;;;64.93;51.85;;;23.00;62.70;;;;;;4807963;54;20992;-34
